Time,TemperatureF,DewpointF,PressureIn,WindDirection,WindDirectionDegrees,WindSpeedMPH,WindSpeedGustMPH,Humidity,HourlyPrecipIn,Conditions,Clouds,dailyrainin,SoftwareType,DateUTC
2013-03-04 00:00:00,18.7,13.3,30.10,North,353,0.0,0.0,79,0.00,,---,0.00,VWS V14.01,2013-03-04 05:00:00,
2013-03-04 00:05:00,18.5,13.1,30.10,North,352,0.0,0.0,79,0.00,,---,0.00,VWS V14.01,2013-03-04 05:05:00,
2013-03-04 00:10:00,18.2,12.8,30.10,North,353,0.0,0.0,79,0.00,,---,0.00,VWS V14.01,2013-03-04 05:10:00,
2013-03-04 00:15:00,17.7,12.6,30.10,North,352,0.0,0.0,80,0.00,,---,0.00,VWS V14.01,2013-03-04 05:15:00,
2013-03-04 00:20:00,17.1,12.0,30.10,North,352,0.0,0.0,80,0.00,,---,0.00,VWS V14.01,2013-03-04 05:20:00,
2013-03-04 00:25:00,16.8,12.3,30.10,North,353,0.0,0.0,82,0.00,,---,0.00,VWS V14.01,2013-03-04 05:25:00,
2013-03-04 00:30:00,16.9,12.4,30.11,NNW,346,0.0,1.0,82,0.00,,---,0.00,VWS V14.01,2013-03-04 05:30:00,
2013-03-04 00:35:00,16.9,12.4,30.11,NW,321,0.0,0.0,82,0.00,,---,0.00,VWS V14.01,2013-03-04 05:35:00,
2013-03-04 00:40:00,16.7,12.2,30.11,NW,313,0.0,0.0,82,0.00,,---,0.00,VWS V14.01,2013-03-04 05:40:00,
2013-03-04 00:45:00,16.5,12.0,30.11,NW,314,0.0,0.0,82,0.00,,---,0.00,VWS V14.01,2013-03-04 05:45:00,
2013-03-04 00:50:00,16.2,12.0,30.11,NW,314,0.0,0.0,83,0.00,,---,0.00,VWS V14.01,2013-03-04 05:50:00,
2013-03-04 00:55:00,15.9,11.7,30.11,NW,314,0.0,0.0,83,0.00,,---,0.00,VWS V14.01,2013-03-04 05:55:00,
2013-03-04 01:00:00,15.6,11.6,30.11,NW,314,0.0,0.0,84,0.00,,---,0.00,VWS V14.01,2013-03-04 06:00:00,
2013-03-04 01:05:00,15.5,11.5,30.11,NW,314,0.0,0.0,84,0.00,,---,0.00,VWS V14.01,2013-03-04 06:05:00,
2013-03-04 01:10:00,15.1,11.1,30.11,NW,314,0.0,0.0,84,0.00,,---,0.00,VWS V14.01,2013-03-04 06:10:00,
2013-03-04 01:15:00,14.6,10.7,30.11,NW,314,0.0,0.0,84,0.00,,---,0.00,VWS V14.01,2013-03-04 06:15:00,
2013-03-04 01:20:00,14.2,10.5,30.11,NW,314,0.0,0.0,85,0.00,,---,0.00,VWS V14.01,2013-03-04 06:20:00,
2013-03-04 01:25:00,14.0,10.6,30.11,NW,314,0.0,0.0,86,0.00,,---,0.00,VWS V14.01,2013-03-04 06:25:00,
2013-03-04 01:30:00,13.6,10.2,30.11,NW,314,0.0,0.0,86,0.00,,---,0.00,VWS V14.01,2013-03-04 06:30:00,
2013-03-04 01:35:00,13.3,10.2,30.11,NW,314,0.0,0.0,87,0.00,,---,0.00,VWS V14.01,2013-03-04 06:35:00,
2013-03-04 01:40:00,13.2,10.3,30.11,NW,314,0.0,0.0,88,0.00,,---,0.00,VWS V14.01,2013-03-04 06:40:00,
2013-03-04 01:45:00,13.2,10.3,30.11,NW,314,0.0,0.0,88,0.00,,---,0.00,VWS V14.01,2013-03-04 06:45:00,
2013-03-04 01:50:00,13.1,10.2,30.11,NW,314,0.0,0.0,88,0.00,,---,0.00,VWS V14.01,2013-03-04 06:50:00,
2013-03-04 01:55:00,12.9,10.0,30.11,NW,314,0.0,0.0,88,0.00,,---,0.00,VWS V14.01,2013-03-04 06:55:00,
2013-03-04 02:00:00,12.7,9.8,30.11,NW,314,0.0,0.0,88,0.00,,---,0.00,VWS V14.01,2013-03-04 07:00:00,
2013-03-04 02:05:00,12.5,9.6,30.11,NW,314,0.0,0.0,88,0.00,,---,0.00,VWS V14.01,2013-03-04 07:05:00,
2013-03-04 02:10:00,12.3,9.4,30.11,NW,314,0.0,0.0,88,0.00,,---,0.00,VWS V14.01,2013-03-04 07:10:00,
2013-03-04 02:15:00,12.1,9.5,30.11,NW,313,0.0,0.0,89,0.00,,---,0.00,VWS V14.01,2013-03-04 07:15:00,
2013-03-04 02:20:00,11.8,9.2,30.11,NW,314,0.0,0.0,89,0.00,,---,0.00,VWS V14.01,2013-03-04 07:20:00,
2013-03-04 02:25:00,11.6,9.0,30.11,NW,314,0.0,0.0,89,0.00,,---,0.00,VWS V14.01,2013-03-04 07:25:00,
2013-03-04 02:30:00,11.4,9.0,30.10,NW,314,0.0,0.0,90,0.00,,---,0.00,VWS V14.01,2013-03-04 07:30:00,
2013-03-04 02:35:00,11.3,8.7,30.11,NW,314,0.0,0.0,89,0.00,,---,0.00,VWS V14.01,2013-03-04 07:35:00,
2013-03-04 02:40:00,10.9,8.3,30.10,NW,314,0.0,0.0,89,0.00,,---,0.00,VWS V14.01,2013-03-04 07:40:00,
2013-03-04 02:45:00,10.8,8.4,30.11,NW,314,0.0,0.0,90,0.00,,---,0.00,VWS V14.01,2013-03-04 07:45:00,
2013-03-04 02:50:00,10.5,8.1,30.10,NW,314,0.0,0.0,90,0.00,,---,0.00,VWS V14.01,2013-03-04 07:50:00,
2013-03-04 02:55:00,10.4,8.1,30.11,NW,313,0.0,0.0,90,0.00,,---,0.00,VWS V14.01,2013-03-04 07:55:00,
2013-03-04 03:00:00,10.2,7.9,30.10,NW,314,0.0,0.0,90,0.00,,---,0.00,VWS V14.01,2013-03-04 08:00:00,
2013-03-04 03:05:00,10.2,8.1,30.11,NW,313,0.0,0.0,91,0.00,,---,0.00,VWS V14.01,2013-03-04 08:05:00,
2013-03-04 03:10:00,9.9,7.8,30.11,NW,314,0.0,0.0,91,0.00,,---,0.00,VWS V14.01,2013-03-04 08:10:00,
2013-03-04 03:15:00,9.6,7.3,30.11,NW,314,0.0,0.0,90,0.00,,---,0.00,VWS V14.01,2013-03-04 08:15:00,
2013-03-04 03:20:00,9.4,7.3,30.11,NW,314,0.0,0.0,91,0.00,,---,0.00,VWS V14.01,2013-03-04 08:20:00,
2013-03-04 03:25:00,9.3,7.2,30.11,NW,314,0.0,0.0,91,0.00,,---,0.00,VWS V14.01,2013-03-04 08:25:00,
2013-03-04 03:30:00,9.1,7.0,30.12,NW,314,0.0,0.0,91,0.00,,---,0.00,VWS V14.01,2013-03-04 08:30:00,
2013-03-04 03:35:00,9.0,6.9,30.12,NW,314,0.0,0.0,91,0.00,,---,0.00,VWS V14.01,2013-03-04 08:35:00,
2013-03-04 03:40:00,8.8,6.7,30.11,NW,314,0.0,0.0,91,0.00,,---,0.00,VWS V14.01,2013-03-04 08:40:00,
2013-03-04 03:45:00,8.6,6.5,30.12,NW,314,0.0,0.0,91,0.00,,---,0.00,VWS V14.01,2013-03-04 08:45:00,
2013-03-04 03:50:00,8.3,6.0,30.12,NW,314,0.0,0.0,90,0.00,,---,0.00,VWS V14.01,2013-03-04 08:50:00,
2013-03-04 03:55:00,8.1,5.8,30.12,NW,314,0.0,0.0,90,0.00,,---,0.00,VWS V14.01,2013-03-04 08:55:00,
2013-03-04 04:00:00,7.8,5.5,30.12,NW,311,0.0,0.0,90,0.00,,---,0.00,VWS V14.01,2013-03-04 09:00:00,
2013-03-04 04:05:00,7.7,5.4,30.12,NW,312,0.0,0.0,90,0.00,,---,0.00,VWS V14.01,2013-03-04 09:05:00,
2013-03-04 04:10:00,7.6,5.5,30.13,NW,311,0.0,0.0,91,0.00,,---,0.00,VWS V14.01,2013-03-04 09:10:00,
2013-03-04 04:15:00,7.4,5.1,30.13,NW,312,0.0,0.0,90,0.00,,---,0.00,VWS V14.01,2013-03-04 09:15:00,
2013-03-04 04:20:00,7.2,4.9,30.13,NW,312,0.0,0.0,90,0.00,,---,0.00,VWS V14.01,2013-03-04 09:20:00,
2013-03-04 04:25:00,7.1,5.0,30.13,NW,312,0.0,0.0,91,0.00,,---,0.00,VWS V14.01,2013-03-04 09:25:00,
2013-03-04 04:30:00,7.1,5.0,30.14,NW,311,0.0,0.0,91,0.00,,---,0.00,VWS V14.01,2013-03-04 09:30:00,
2013-03-04 04:35:00,7.1,5.0,30.14,NW,311,0.0,0.0,91,0.00,,---,0.00,VWS V14.01,2013-03-04 09:35:00,
2013-03-04 04:40:00,7.4,5.6,30.14,NW,312,0.0,0.0,92,0.00,,---,0.00,VWS V14.01,2013-03-04 09:40:00,
2013-03-04 04:45:00,7.3,5.2,30.14,NW,311,0.0,0.0,91,0.00,,---,0.00,VWS V14.01,2013-03-04 09:45:00,
2013-03-04 04:50:00,7.1,4.8,30.15,NW,312,0.0,0.0,90,0.00,,---,0.00,VWS V14.01,2013-03-04 09:50:00,
2013-03-04 04:55:00,7.0,4.9,30.14,NW,311,0.0,0.0,91,0.00,,---,0.00,VWS V14.01,2013-03-04 09:55:00,
2013-03-04 05:00:00,7.0,4.9,30.14,NW,312,0.0,0.0,91,0.00,,---,0.00,VWS V14.01,2013-03-04 10:00:00,
2013-03-04 05:05:00,7.3,5.2,30.14,NW,311,0.0,0.0,91,0.00,,---,0.00,VWS V14.01,2013-03-04 10:05:00,
2013-03-04 05:10:00,7.6,5.8,30.15,NW,312,0.0,0.0,92,0.00,,---,0.00,VWS V14.01,2013-03-04 10:10:00,
2013-03-04 05:15:00,7.5,5.4,30.15,NW,311,0.0,0.0,91,0.00,,---,0.00,VWS V14.01,2013-03-04 10:15:00,
2013-03-04 05:20:00,7.3,5.2,30.15,NW,311,0.0,0.0,91,0.00,,---,0.00,VWS V14.01,2013-03-04 10:20:00,
2013-03-04 05:25:00,7.0,4.7,30.15,NW,312,0.0,0.0,90,0.00,,---,0.00,VWS V14.01,2013-03-04 10:25:00,
2013-03-04 05:30:00,6.7,4.4,30.16,NW,312,0.0,0.0,90,0.00,,---,0.00,VWS V14.01,2013-03-04 10:30:00,
2013-03-04 05:35:00,6.4,3.9,30.16,NW,312,0.0,0.0,89,0.00,,---,0.00,VWS V14.01,2013-03-04 10:35:00,
2013-03-04 05:40:00,6.2,3.9,30.15,NW,312,0.0,0.0,90,0.00,,---,0.00,VWS V14.01,2013-03-04 10:40:00,
2013-03-04 05:45:00,6.2,3.9,30.15,NW,312,0.0,0.0,90,0.00,,---,0.00,VWS V14.01,2013-03-04 10:45:00,
2013-03-04 05:50:00,6.3,4.0,30.15,NW,312,0.0,0.0,90,0.00,,---,0.00,VWS V14.01,2013-03-04 10:50:00,
2013-03-04 05:55:00,6.3,4.2,30.15,NW,312,0.0,0.0,91,0.00,,---,0.00,VWS V14.01,2013-03-04 10:55:00,
2013-03-04 06:00:00,6.2,3.9,30.15,NW,312,0.0,0.0,90,0.00,,---,0.00,VWS V14.01,2013-03-04 11:00:00,
2013-03-04 06:05:00,6.4,4.3,30.15,NW,311,0.0,0.0,91,0.00,,---,0.00,VWS V14.01,2013-03-04 11:05:00,
2013-03-04 06:10:00,6.3,4.0,30.15,NW,311,0.0,0.0,90,0.00,,---,0.00,VWS V14.01,2013-03-04 11:10:00,
2013-03-04 06:15:00,6.2,3.9,30.15,NW,311,0.0,0.0,90,0.00,,---,0.00,VWS V14.01,2013-03-04 11:15:00,
2013-03-04 06:20:00,6.0,3.7,30.15,NW,312,0.0,0.0,90,0.00,,---,0.00,VWS V14.01,2013-03-04 11:20:00,
2013-03-04 06:25:00,5.9,3.6,30.15,NW,311,0.0,0.0,90,0.00,,---,0.00,VWS V14.01,2013-03-04 11:25:00,
2013-03-04 06:30:00,5.8,3.5,30.15,NW,311,0.0,0.0,90,0.00,,---,0.00,VWS V14.01,2013-03-04 11:30:00,
2013-03-04 06:35:00,5.8,3.5,30.15,NW,312,0.0,0.0,90,0.00,,---,0.00,VWS V14.01,2013-03-04 11:35:00,
2013-03-04 06:40:00,5.8,3.7,30.15,NW,312,0.0,0.0,91,0.00,,---,0.00,VWS V14.01,2013-03-04 11:40:00,
2013-03-04 06:45:00,5.7,3.4,30.16,NW,311,0.0,0.0,90,0.00,,---,0.00,VWS V14.01,2013-03-04 11:45:00,
2013-03-04 06:50:00,5.4,2.9,30.16,NW,312,0.0,0.0,89,0.00,,---,0.00,VWS V14.01,2013-03-04 11:50:00,
2013-03-04 06:55:00,5.1,2.6,30.16,NW,311,0.0,0.0,89,0.00,,---,0.00,VWS V14.01,2013-03-04 11:55:00,
2013-03-04 07:00:00,5.0,2.5,30.16,NW,312,0.0,0.0,89,0.00,,---,0.00,VWS V14.01,2013-03-04 12:00:00,
2013-03-04 07:05:00,4.8,2.3,30.16,NW,312,0.0,0.0,89,0.00,,---,0.00,VWS V14.01,2013-03-04 12:05:00,
2013-03-04 07:10:00,4.9,2.6,30.17,NW,311,0.0,0.0,90,0.00,,---,0.00,VWS V14.01,2013-03-04 12:10:00,
2013-03-04 07:15:00,4.8,2.3,30.17,NW,312,0.0,0.0,89,0.00,,---,0.00,VWS V14.01,2013-03-04 12:15:00,
2013-03-04 07:20:00,4.8,2.3,30.17,NW,312,0.0,0.0,89,0.00,,---,0.00,VWS V14.01,2013-03-04 12:20:00,
2013-03-04 07:25:00,5.1,2.6,30.17,NW,311,0.0,0.0,89,0.00,,---,0.00,VWS V14.01,2013-03-04 12:25:00,
2013-03-04 07:30:00,5.3,2.8,30.17,NW,311,0.0,0.0,89,0.00,,---,0.00,VWS V14.01,2013-03-04 12:30:00,
2013-03-04 07:35:00,5.5,3.0,30.18,NW,312,0.0,0.0,89,0.00,,---,0.00,VWS V14.01,2013-03-04 12:35:00,
2013-03-04 07:40:00,5.7,3.2,30.18,NW,311,0.0,0.0,89,0.00,,---,0.00,VWS V14.01,2013-03-04 12:40:00,
2013-03-04 07:45:00,6.1,3.6,30.18,NW,309,0.0,0.0,89,0.00,,---,0.00,VWS V14.01,2013-03-04 12:45:00,
2013-03-04 07:50:00,6.5,4.0,30.18,NW,309,0.0,0.0,89,0.00,,---,0.00,VWS V14.01,2013-03-04 12:50:00,
2013-03-04 07:55:00,7.1,4.8,30.18,NW,309,0.0,0.0,90,0.00,,---,0.00,VWS V14.01,2013-03-04 12:55:00,
2013-03-04 08:00:00,7.8,5.5,30.18,NW,309,0.0,0.0,90,0.00,,---,0.00,VWS V14.01,2013-03-04 13:00:00,
2013-03-04 08:05:00,8.8,6.5,30.18,NW,309,0.0,0.0,90,0.00,,---,0.00,VWS V14.01,2013-03-04 13:05:00,
2013-03-04 08:10:00,9.9,7.6,30.18,NW,309,0.0,0.0,90,0.00,,---,0.00,VWS V14.01,2013-03-04 13:10:00,
2013-03-04 08:15:00,11.1,8.8,30.18,NW,309,0.0,0.0,90,0.00,,---,0.00,VWS V14.01,2013-03-04 13:15:00,
2013-03-04 08:20:00,13.4,11.3,30.18,NW,309,0.0,0.0,91,0.00,,---,0.00,VWS V14.01,2013-03-04 13:20:00,
2013-03-04 08:25:00,14.6,11.4,30.18,NW,309,0.0,0.0,87,0.00,,---,0.00,VWS V14.01,2013-03-04 13:25:00,
2013-03-04 08:30:00,14.5,11.1,30.19,NW,309,0.0,0.0,86,0.00,,---,0.00,VWS V14.01,2013-03-04 13:30:00,
2013-03-04 08:35:00,14.9,11.7,30.18,NW,309,0.0,0.0,87,0.00,,---,0.00,VWS V14.01,2013-03-04 13:35:00,
2013-03-04 08:40:00,15.6,12.4,30.19,WNW,290,1.0,1.0,87,0.00,,---,0.00,VWS V14.01,2013-03-04 13:40:00,
2013-03-04 08:45:00,15.9,12.7,30.18,WNW,300,0.0,1.0,87,0.00,,---,0.00,VWS V14.01,2013-03-04 13:45:00,
2013-03-04 08:50:00,16.9,13.7,30.19,WSW,249,0.0,0.0,87,0.00,,---,0.00,VWS V14.01,2013-03-04 13:50:00,
2013-03-04 08:55:00,17.5,13.8,30.19,WSW,243,1.0,1.0,85,0.00,,---,0.00,VWS V14.01,2013-03-04 13:55:00,
2013-03-04 09:00:00,18.0,14.0,30.18,WSW,256,0.0,1.0,84,0.00,,---,0.00,VWS V14.01,2013-03-04 14:00:00,
2013-03-04 09:05:00,17.9,13.6,30.18,NW,307,0.0,2.0,83,0.00,,---,0.00,VWS V14.01,2013-03-04 14:05:00,
2013-03-04 09:10:00,17.9,13.6,30.18,WNW,300,0.0,2.0,83,0.00,,---,0.00,VWS V14.01,2013-03-04 14:10:00,
2013-03-04 09:15:00,18.3,14.0,30.18,ENE,61,1.0,2.0,83,0.00,,---,0.00,VWS V14.01,2013-03-04 14:15:00,
2013-03-04 09:20:00,18.1,13.8,30.18,NNE,26,1.0,2.0,83,0.00,,---,0.00,VWS V14.01,2013-03-04 14:20:00,
2013-03-04 09:25:00,18.2,13.6,30.18,NNE,16,2.0,3.0,82,0.00,,---,0.00,VWS V14.01,2013-03-04 14:25:00,
2013-03-04 09:30:00,18.3,14.0,30.18,NNW,332,2.0,3.0,83,0.00,,---,0.00,VWS V14.01,2013-03-04 14:30:00,
2013-03-04 09:35:00,18.7,14.1,30.18,NNW,346,3.0,4.0,82,0.00,,---,0.00,VWS V14.01,2013-03-04 14:35:00,
2013-03-04 09:40:00,18.7,14.1,30.17,NNE,27,1.0,4.0,82,0.00,,---,0.00,VWS V14.01,2013-03-04 14:40:00,
2013-03-04 09:45:00,19.1,14.5,30.17,ENE,71,2.0,4.0,82,0.00,,---,0.00,VWS V14.01,2013-03-04 14:45:00,
2013-03-04 09:50:00,19.2,14.3,30.17,ENE,58,3.0,5.0,81,0.00,,---,0.00,VWS V14.01,2013-03-04 14:50:00,
2013-03-04 09:55:00,19.2,14.3,30.17,NE,53,4.0,7.0,81,0.00,,---,0.00,VWS V14.01,2013-03-04 14:55:00,
2013-03-04 10:00:00,19.4,14.5,30.17,ENE,63,2.0,4.0,81,0.00,,---,0.00,VWS V14.01,2013-03-04 15:00:00,
2013-03-04 10:05:00,19.7,14.5,30.17,East,83,2.0,5.0,80,0.00,,---,0.00,VWS V14.01,2013-03-04 15:05:00,
2013-03-04 10:10:00,19.8,14.6,30.17,East,89,0.0,4.0,80,0.00,,---,0.00,VWS V14.01,2013-03-04 15:10:00,
2013-03-04 10:15:00,20.1,14.6,30.17,NE,46,4.0,7.0,79,0.00,,---,0.00,VWS V14.01,2013-03-04 15:15:00,
2013-03-04 10:20:00,20.1,14.6,30.17,East,87,1.0,5.0,79,0.00,,---,0.00,VWS V14.01,2013-03-04 15:20:00,
2013-03-04 10:25:00,20.3,14.8,30.17,ENE,67,4.0,5.0,79,0.00,,---,0.00,VWS V14.01,2013-03-04 15:25:00,
2013-03-04 10:30:00,20.2,14.7,30.17,East,101,1.0,4.0,79,0.00,,---,0.00,VWS V14.01,2013-03-04 15:30:00,
2013-03-04 10:35:00,20.3,14.6,30.17,ENE,77,0.0,4.0,78,0.00,,---,0.00,VWS V14.01,2013-03-04 15:35:00,
2013-03-04 10:40:00,20.9,15.4,30.17,WSW,250,0.0,2.0,79,0.00,,---,0.00,VWS V14.01,2013-03-04 15:40:00,
2013-03-04 10:45:00,21.1,15.0,30.17,NE,41,2.0,3.0,77,0.00,,---,0.00,VWS V14.01,2013-03-04 15:45:00,
2013-03-04 10:50:00,21.0,14.9,30.17,NE,36,0.0,3.0,77,0.00,,---,0.00,VWS V14.01,2013-03-04 15:50:00,
2013-03-04 10:55:00,21.3,15.2,30.17,NE,51,1.0,3.0,77,0.00,,---,0.00,VWS V14.01,2013-03-04 15:55:00,
2013-03-04 11:00:00,21.6,15.2,30.17,East,91,2.0,3.0,76,0.00,,---,0.00,VWS V14.01,2013-03-04 16:00:00,
2013-03-04 11:05:00,21.9,15.5,30.16,East,98,0.0,2.0,76,0.00,,---,0.00,VWS V14.01,2013-03-04 16:05:00,
2013-03-04 11:10:00,22.4,15.7,30.16,WNW,300,0.0,1.0,75,0.00,,---,0.00,VWS V14.01,2013-03-04 16:10:00,
2013-03-04 11:15:00,22.5,15.5,30.16,NW,321,1.0,2.0,74,0.00,,---,0.00,VWS V14.01,2013-03-04 16:15:00,
2013-03-04 11:20:00,23.1,16.1,30.16,NNW,345,0.0,1.0,74,0.00,,---,0.00,VWS V14.01,2013-03-04 16:20:00,
2013-03-04 11:25:00,23.9,16.5,30.16,East,100,0.0,1.0,73,0.00,,---,0.00,VWS V14.01,2013-03-04 16:25:00,
2013-03-04 11:30:00,24.6,16.5,30.16,ESE,114,1.0,2.0,71,0.00,,---,0.00,VWS V14.01,2013-03-04 16:30:00,
2013-03-04 11:35:00,24.7,16.3,30.16,West,264,0.0,4.0,70,0.00,,---,0.00,VWS V14.01,2013-03-04 16:35:00,
2013-03-04 11:40:00,24.4,16.0,30.16,NNE,21,0.0,4.0,70,0.00,,---,0.00,VWS V14.01,2013-03-04 16:40:00,
2013-03-04 11:45:00,24.5,16.1,30.16,NNW,329,2.0,4.0,70,0.00,,---,0.00,VWS V14.01,2013-03-04 16:45:00,
2013-03-04 11:50:00,24.7,16.6,30.16,North,8,1.0,2.0,71,0.00,,---,0.00,VWS V14.01,2013-03-04 16:50:00,
2013-03-04 11:55:00,25.3,16.9,30.16,WSW,250,0.0,2.0,70,0.00,,---,0.00,VWS V14.01,2013-03-04 16:55:00,
2013-03-04 12:00:00,25.7,17.0,30.16,SSW,206,1.0,5.0,69,0.00,,---,0.00,VWS V14.01,2013-03-04 17:00:00,
2013-03-04 12:05:00,25.7,16.3,30.16,North,356,0.0,4.0,67,0.00,,---,0.00,VWS V14.01,2013-03-04 17:05:00,
2013-03-04 12:10:00,25.9,16.5,30.16,WSW,245,0.0,4.0,67,0.00,,---,0.00,VWS V14.01,2013-03-04 17:10:00,
2013-03-04 12:15:00,25.8,16.0,30.15,NW,323,2.0,4.0,66,0.00,,---,0.00,VWS V14.01,2013-03-04 17:15:00,
2013-03-04 12:20:00,25.7,16.3,30.15,North,351,0.0,3.0,67,0.00,,---,0.00,VWS V14.01,2013-03-04 17:20:00,
2013-03-04 12:25:00,26.6,17.5,30.15,ESE,122,0.0,3.0,68,0.00,,---,0.00,VWS V14.01,2013-03-04 17:25:00,
2013-03-04 12:30:00,27.6,17.4,30.15,SE,143,0.0,2.0,65,0.00,,---,0.00,VWS V14.01,2013-03-04 17:30:00,
2013-03-04 12:35:00,27.9,17.0,30.15,ESE,115,3.0,3.0,63,0.00,,---,0.00,VWS V14.01,2013-03-04 17:35:00,
2013-03-04 12:40:00,27.5,15.8,30.15,NNW,341,0.0,2.0,61,0.00,,---,0.00,VWS V14.01,2013-03-04 17:40:00,
2013-03-04 12:45:00,27.7,16.0,30.15,North,6,0.0,3.0,61,0.00,,---,0.00,VWS V14.01,2013-03-04 17:45:00,
2013-03-04 12:50:00,27.7,16.4,30.14,ESE,106,2.0,4.0,62,0.00,,---,0.00,VWS V14.01,2013-03-04 17:50:00,
2013-03-04 12:55:00,27.8,16.1,30.14,North,350,0.0,2.0,61,0.00,,---,0.00,VWS V14.01,2013-03-04 17:55:00,
2013-03-04 13:00:00,28.2,16.5,30.14,ENE,61,2.0,2.0,61,0.00,,---,0.00,VWS V14.01,2013-03-04 18:00:00,
2013-03-04 13:05:00,28.6,16.9,30.14,ENE,65,0.0,4.0,61,0.00,,---,0.00,VWS V14.01,2013-03-04 18:05:00,
2013-03-04 13:10:00,28.4,16.3,30.14,ENE,63,2.0,3.0,60,0.00,,---,0.00,VWS V14.01,2013-03-04 18:10:00,
2013-03-04 13:15:00,28.6,16.5,30.14,ENE,65,4.0,4.0,60,0.00,,---,0.00,VWS V14.01,2013-03-04 18:15:00,
2013-03-04 13:20:00,28.5,16.0,30.14,North,358,2.0,4.0,59,0.00,,---,0.00,VWS V14.01,2013-03-04 18:20:00,
2013-03-04 13:25:00,28.5,16.0,30.13,North,351,2.0,5.0,59,0.00,,---,0.00,VWS V14.01,2013-03-04 18:25:00,
2013-03-04 13:29:00,28.7,17.0,30.13,NE,51,3.0,4.0,61,0.00,,---,0.00,VWS V14.01,2013-03-04 18:29:00,
2013-03-04 13:30:00,32.6,18.7,30.11,SSW,208,0.0,3.0,56,0.00,,---,0.00,VWS V14.01,2013-03-04 18:30:00,
2013-03-04 13:34:00,28.9,16.0,30.13,NNW,347,0.0,4.0,58,0.00,,---,0.00,VWS V14.01,2013-03-04 18:34:00,
2013-03-04 13:35:00,33.1,18.7,30.11,SSW,195,0.0,2.0,55,0.00,,---,0.00,VWS V14.01,2013-03-04 18:35:00,
2013-03-04 13:39:00,29.4,16.1,30.13,ENE,68,2.0,3.0,57,0.00,,---,0.00,VWS V14.01,2013-03-04 18:39:00,
2013-03-04 13:40:00,33.6,18.7,30.11,SE,128,0.0,1.0,54,0.00,,---,0.00,VWS V14.01,2013-03-04 18:40:00,
2013-03-04 13:44:00,29.6,15.8,30.13,ESE,114,2.0,4.0,56,0.00,,---,0.00,VWS V14.01,2013-03-04 18:44:00,
2013-03-04 13:45:00,33.6,18.3,30.11,ESE,117,2.0,3.0,53,0.00,,---,0.00,VWS V14.01,2013-03-04 18:45:00,
2013-03-04 13:49:00,29.8,16.0,30.13,ENE,65,0.0,3.0,56,0.00,,---,0.00,VWS V14.01,2013-03-04 18:49:00,
2013-03-04 13:50:00,33.1,18.3,30.11,ENE,71,2.0,3.0,54,0.00,,---,0.00,VWS V14.01,2013-03-04 18:50:00,
2013-03-04 13:54:00,30.1,16.3,30.13,East,91,3.0,3.0,56,0.00,,---,0.00,VWS V14.01,2013-03-04 18:54:00,
2013-03-04 13:55:00,32.7,18.8,30.11,ESE,105,0.0,2.0,56,0.00,,---,0.00,VWS V14.01,2013-03-04 18:55:00,
2013-03-04 13:59:00,30.1,15.9,30.12,NW,324,1.0,2.0,55,0.00,,---,0.00,VWS V14.01,2013-03-04 18:59:00,
2013-03-04 14:00:00,33.2,19.2,30.11,SE,134,0.0,2.0,56,0.00,,---,0.00,VWS V14.01,2013-03-04 19:00:00,
2013-03-04 14:04:00,30.4,15.8,30.12,North,1,2.0,2.0,54,0.00,,---,0.00,VWS V14.01,2013-03-04 19:04:00,
2013-03-04 14:05:00,33.8,18.9,30.11,SW,214,1.0,3.0,54,0.00,,---,0.00,VWS V14.01,2013-03-04 19:05:00,
2013-03-04 14:09:00,30.6,16.8,30.12,East,98,0.0,2.0,56,0.00,,---,0.00,VWS V14.01,2013-03-04 19:09:00,
2013-03-04 14:10:00,34.2,18.9,30.11,SW,215,0.0,3.0,53,0.00,,---,0.00,VWS V14.01,2013-03-04 19:10:00,
2013-03-04 14:14:00,30.9,16.6,30.12,East,101,0.0,1.0,55,0.00,,---,0.00,VWS V14.01,2013-03-04 19:14:00,
2013-03-04 14:15:00,34.3,19.4,30.11,ESE,118,0.0,1.0,54,0.00,,---,0.00,VWS V14.01,2013-03-04 19:15:00,
2013-03-04 14:19:00,31.2,16.9,30.12,East,91,3.0,3.0,55,0.00,,---,0.00,VWS V14.01,2013-03-04 19:19:00,
2013-03-04 14:20:00,34.7,19.8,30.11,ESE,107,0.0,1.0,54,0.00,,---,0.00,VWS V14.01,2013-03-04 19:20:00,
2013-03-04 14:24:00,31.1,16.4,30.12,SE,128,0.0,3.0,54,0.00,,---,0.00,VWS V14.01,2013-03-04 19:24:00,
2013-03-04 14:25:00,35.0,19.2,30.11,East,82,3.0,3.0,52,0.00,,---,0.00,VWS V14.01,2013-03-04 19:25:00,
2013-03-04 14:29:00,31.6,16.9,30.12,ENE,64,0.0,0.0,54,0.00,,---,0.00,VWS V14.01,2013-03-04 19:29:00,
2013-03-04 14:30:00,34.2,18.9,30.11,ESE,118,0.0,3.0,53,0.00,,---,0.00,VWS V14.01,2013-03-04 19:30:00,
2013-03-04 14:34:00,32.4,18.5,30.11,North,358,0.0,1.0,56,0.00,,---,0.00,VWS V14.01,2013-03-04 19:34:00,
2013-03-04 14:35:00,34.4,18.6,30.11,ENE,73,2.0,4.0,52,0.00,,---,0.00,VWS V14.01,2013-03-04 19:35:00,
2013-03-04 14:39:00,32.9,18.9,30.11,ESE,114,0.0,2.0,56,0.00,,---,0.00,VWS V14.01,2013-03-04 19:39:00,
2013-03-04 14:40:00,33.6,18.7,30.10,East,101,0.0,4.0,54,0.00,,---,0.00,VWS V14.01,2013-03-04 19:40:00,
2013-03-04 14:44:00,33.5,19.1,30.11,ESE,107,0.0,1.0,55,0.00,,---,0.00,VWS V14.01,2013-03-04 19:44:00,
2013-03-04 14:45:00,33.8,18.5,30.10,SE,131,0.0,4.0,53,0.00,,---,0.00,VWS V14.01,2013-03-04 19:45:00,
2013-03-04 14:49:00,33.8,18.0,30.11,SW,217,0.0,3.0,52,0.00,,---,0.00,VWS V14.01,2013-03-04 19:49:00,
2013-03-04 14:50:00,34.1,17.9,30.10,SE,134,0.0,4.0,51,0.00,,---,0.00,VWS V14.01,2013-03-04 19:50:00,
2013-03-04 14:54:00,33.2,18.4,30.11,ESE,107,1.0,3.0,54,0.00,,---,0.00,VWS V14.01,2013-03-04 19:54:00,
2013-03-04 14:55:00,34.3,17.1,30.10,SW,215,0.0,2.0,49,0.00,,---,0.00,VWS V14.01,2013-03-04 19:55:00,
2013-03-04 14:59:00,32.7,17.9,30.11,ENE,61,0.0,2.0,54,0.00,,---,0.00,VWS V14.01,2013-03-04 19:59:00,
2013-03-04 15:00:00,34.3,16.7,30.10,ESE,111,2.0,4.0,48,0.00,,---,0.00,VWS V14.01,2013-03-04 20:00:00,
2013-03-04 15:04:00,32.9,18.5,30.11,ESE,109,0.0,2.0,55,0.00,,---,0.00,VWS V14.01,2013-03-04 20:04:00,
2013-03-04 15:05:00,33.6,16.0,30.10,East,91,3.0,4.0,48,0.00,,---,0.00,VWS V14.01,2013-03-04 20:05:00,
2013-03-04 15:09:00,33.7,19.3,30.11,SE,143,0.0,3.0,55,0.00,,---,0.00,VWS V14.01,2013-03-04 20:09:00,
2013-03-04 15:10:00,33.3,16.7,30.10,ESE,115,2.0,4.0,50,0.00,,---,0.00,VWS V14.01,2013-03-04 20:10:00,
2013-03-04 15:14:00,33.9,19.0,30.11,SW,216,0.0,3.0,54,0.00,,---,0.00,VWS V14.01,2013-03-04 20:14:00,
2013-03-04 15:15:00,33.5,16.4,30.10,ESE,122,2.0,4.0,49,0.01,,---,0.01,VWS V14.01,2013-03-04 20:15:00,
2013-03-04 15:19:00,34.3,19.0,30.11,ESE,105,0.0,1.0,53,0.00,,---,0.00,VWS V14.01,2013-03-04 20:19:00,
2013-03-04 15:20:00,33.8,17.1,30.10,SE,124,0.0,3.0,50,0.01,,---,0.01,VWS V14.01,2013-03-04 20:20:00,
2013-03-04 15:24:00,34.7,19.8,30.11,SE,131,0.0,1.0,54,0.00,,---,0.00,VWS V14.01,2013-03-04 20:24:00,
2013-03-04 15:25:00,33.9,16.8,30.10,East,95,0.0,5.0,49,0.01,,---,0.01,VWS V14.01,2013-03-04 20:25:00,
2013-03-04 15:29:00,34.9,19.1,30.11,East,86,0.0,2.0,52,0.00,,---,0.00,VWS V14.01,2013-03-04 20:29:00,
2013-03-04 15:30:00,33.6,16.0,30.10,ESE,114,2.0,6.0,48,0.01,,---,0.01,VWS V14.01,2013-03-04 20:30:00,
2013-03-04 15:34:00,34.3,18.5,30.11,SE,124,0.0,3.0,52,0.00,,---,0.00,VWS V14.01,2013-03-04 20:34:00,
2013-03-04 15:35:00,33.3,16.7,30.10,NE,51,0.0,4.0,50,0.01,,---,0.01,VWS V14.01,2013-03-04 20:35:00,
2013-03-04 15:39:00,34.4,19.0,30.11,East,97,1.0,1.0,53,0.00,,---,0.00,VWS V14.01,2013-03-04 20:39:00,
2013-03-04 15:40:00,32.9,16.3,30.10,SE,138,5.0,5.0,50,0.01,,---,0.01,VWS V14.01,2013-03-04 20:40:00,
2013-03-04 15:44:00,33.7,18.0,30.10,East,82,2.0,4.0,52,0.00,,---,0.00,VWS V14.01,2013-03-04 20:44:00,
2013-03-04 15:45:00,33.1,17.0,30.10,SW,215,1.0,5.0,51,0.01,,---,0.01,VWS V14.01,2013-03-04 20:45:00,
2013-03-04 15:49:00,33.8,18.0,30.10,WSW,246,0.0,4.0,52,0.00,,---,0.00,VWS V14.01,2013-03-04 20:49:00,
2013-03-04 15:50:00,33.1,17.0,30.10,SSE,152,0.0,4.0,51,0.01,,---,0.01,VWS V14.01,2013-03-04 20:50:00,
2013-03-04 15:54:00,34.1,17.9,30.10,SE,136,1.0,4.0,51,0.00,,---,0.00,VWS V14.01,2013-03-04 20:54:00,
2013-03-04 15:55:00,32.8,17.1,30.09,ENE,66,1.0,4.0,52,0.01,,---,0.01,VWS V14.01,2013-03-04 20:55:00,
2013-03-04 15:59:00,34.1,17.9,30.10,SE,128,0.0,2.0,51,0.00,,---,0.00,VWS V14.01,2013-03-04 20:59:00,
2013-03-04 16:00:00,32.9,16.8,30.09,NNE,29,0.0,4.0,51,0.01,,---,0.01,VWS V14.01,2013-03-04 21:00:00,
2013-03-04 16:04:00,34.5,17.3,30.10,East,98,1.0,4.0,49,0.00,,---,0.00,VWS V14.01,2013-03-04 21:04:00,
2013-03-04 16:05:00,32.7,17.0,30.09,East,86,0.0,4.0,52,0.01,,---,0.01,VWS V14.01,2013-03-04 21:05:00,
2013-03-04 16:09:00,34.0,16.4,30.10,ENE,75,2.0,4.0,48,0.00,,---,0.00,VWS V14.01,2013-03-04 21:09:00,
2013-03-04 16:10:00,32.5,16.4,30.09,East,89,1.0,3.0,51,0.01,,---,0.01,VWS V14.01,2013-03-04 21:10:00,
2013-03-04 16:14:00,33.3,16.7,30.10,ESE,119,2.0,4.0,50,0.00,,---,0.00,VWS V14.01,2013-03-04 21:14:00,
2013-03-04 16:15:00,32.4,16.8,30.09,ESE,113,0.0,2.0,52,0.01,,---,0.01,VWS V14.01,2013-03-04 21:15:00,
2013-03-04 16:19:00,33.4,16.8,30.10,ESE,116,0.0,4.0,50,0.01,,---,0.01,VWS V14.01,2013-03-04 21:19:00,
2013-03-04 16:20:00,32.7,17.0,30.09,SSW,207,1.0,3.0,52,0.00,,---,0.01,VWS V14.01,2013-03-04 21:20:00,
2013-03-04 16:24:00,33.5,16.9,30.10,SE,129,0.0,2.0,50,0.01,,---,0.01,VWS V14.01,2013-03-04 21:24:00,
2013-03-04 16:25:00,33.0,16.9,30.10,SE,141,1.0,3.0,51,0.00,,---,0.01,VWS V14.01,2013-03-04 21:25:00,
2013-03-04 16:29:00,33.9,16.3,30.10,ESE,110,2.0,5.0,48,0.01,,---,0.01,VWS V14.01,2013-03-04 21:29:00,
2013-03-04 16:30:00,32.5,15.9,30.09,SE,146,0.0,5.0,50,0.00,,---,0.01,VWS V14.01,2013-03-04 21:30:00,
2013-03-04 16:34:00,34.0,16.4,30.10,ESE,105,5.0,6.0,48,0.01,,---,0.01,VWS V14.01,2013-03-04 21:34:00,
2013-03-04 16:35:00,32.1,15.6,30.10,East,97,3.0,3.0,50,0.00,,---,0.01,VWS V14.01,2013-03-04 21:35:00,
2013-03-04 16:39:00,33.4,16.3,30.10,SE,128,4.0,4.0,49,0.01,,---,0.01,VWS V14.01,2013-03-04 21:39:00,
2013-03-04 16:40:00,31.5,15.9,30.10,SE,130,0.0,6.0,52,0.00,,---,0.01,VWS V14.01,2013-03-04 21:40:00,
2013-03-04 16:44:00,33.1,16.5,30.09,ENE,71,3.0,4.0,50,0.01,,---,0.01,VWS V14.01,2013-03-04 21:44:00,
2013-03-04 16:45:00,31.3,15.7,30.10,SSE,162,0.0,3.0,52,0.00,,---,0.01,VWS V14.01,2013-03-04 21:45:00,
2013-03-04 16:49:00,32.9,17.2,30.10,SW,218,0.0,5.0,52,0.01,,---,0.01,VWS V14.01,2013-03-04 21:49:00,
2013-03-04 16:50:00,31.0,15.0,30.10,ESE,120,1.0,4.0,51,0.00,,---,0.01,VWS V14.01,2013-03-04 21:50:00,
2013-03-04 16:54:00,33.2,17.0,30.10,SSE,165,1.0,4.0,51,0.01,,---,0.01,VWS V14.01,2013-03-04 21:54:00,
2013-03-04 16:55:00,30.7,15.2,30.10,ESE,117,3.0,3.0,52,0.00,,---,0.01,VWS V14.01,2013-03-04 21:55:00,
2013-03-04 16:59:00,32.8,16.2,30.10,SSW,198,1.0,4.0,50,0.01,,---,0.01,VWS V14.01,2013-03-04 21:59:00,
2013-03-04 17:00:00,30.4,14.9,30.10,ESE,118,0.0,5.0,52,0.00,,---,0.01,VWS V14.01,2013-03-04 22:00:00,
2013-03-04 17:04:00,33.0,17.3,30.09,East,85,2.0,2.0,52,0.01,,---,0.01,VWS V14.01,2013-03-04 22:04:00,
2013-03-04 17:05:00,30.2,14.7,30.10,SE,132,0.0,2.0,52,0.00,,---,0.01,VWS V14.01,2013-03-04 22:05:00,
2013-03-04 17:09:00,32.7,16.6,30.10,SSW,202,0.0,4.0,51,0.01,,---,0.01,VWS V14.01,2013-03-04 22:09:00,
2013-03-04 17:10:00,30.0,14.5,30.10,ESE,117,0.0,2.0,52,0.00,,---,0.01,VWS V14.01,2013-03-04 22:10:00,
2013-03-04 17:14:00,32.6,16.5,30.09,SE,145,0.0,3.0,51,0.01,,---,0.01,VWS V14.01,2013-03-04 22:14:00,
2013-03-04 17:15:00,29.8,14.3,30.10,ENE,68,2.0,3.0,52,0.00,,---,0.01,VWS V14.01,2013-03-04 22:15:00,
2013-03-04 17:19:00,32.4,16.3,30.09,ESE,122,1.0,2.0,51,0.01,,---,0.01,VWS V14.01,2013-03-04 22:19:00,
2013-03-04 17:20:00,29.6,15.0,30.10,ESE,110,1.0,3.0,54,0.00,,---,0.01,VWS V14.01,2013-03-04 22:20:00,
2013-03-04 17:24:00,32.6,16.9,30.09,ESE,111,0.0,3.0,52,0.00,,---,0.01,VWS V14.01,2013-03-04 22:24:00,
2013-03-04 17:25:00,29.4,14.8,30.10,SE,131,0.0,3.0,54,0.00,,---,0.01,VWS V14.01,2013-03-04 22:25:00,
2013-03-04 17:29:00,32.9,16.8,30.09,ESE,108,0.0,3.0,51,0.00,,---,0.01,VWS V14.01,2013-03-04 22:29:00,
2013-03-04 17:30:00,29.1,14.5,30.10,SE,139,0.0,1.0,54,0.00,,---,0.01,VWS V14.01,2013-03-04 22:30:00,
2013-03-04 17:34:00,32.8,16.2,30.09,ESE,108,0.0,5.0,50,0.00,,---,0.01,VWS V14.01,2013-03-04 22:34:00,
2013-03-04 17:35:00,28.9,14.8,30.11,ESE,114,0.0,3.0,55,0.00,,---,0.01,VWS V14.01,2013-03-04 22:35:00,
2013-03-04 17:39:00,32.3,16.2,30.10,ESE,108,1.0,2.0,51,0.00,,---,0.01,VWS V14.01,2013-03-04 22:39:00,
2013-03-04 17:40:00,28.7,15.0,30.10,SE,146,1.0,1.0,56,0.00,,---,0.01,VWS V14.01,2013-03-04 22:40:00,
2013-03-04 17:44:00,31.6,15.6,30.10,ESE,118,2.0,5.0,51,0.00,,---,0.01,VWS V14.01,2013-03-04 22:44:00,
2013-03-04 17:45:00,28.5,14.8,30.10,ESE,118,0.0,1.0,56,0.00,,---,0.01,VWS V14.01,2013-03-04 22:45:00,
2013-03-04 17:49:00,31.3,15.7,30.10,SSW,201,0.0,3.0,52,0.00,,---,0.01,VWS V14.01,2013-03-04 22:49:00,
2013-03-04 17:50:00,28.5,14.8,30.11,SSE,152,0.0,1.0,56,0.00,,---,0.01,VWS V14.01,2013-03-04 22:50:00,
2013-03-04 17:54:00,31.1,15.1,30.10,ESE,105,0.0,2.0,51,0.00,,---,0.01,VWS V14.01,2013-03-04 22:54:00,
2013-03-04 17:55:00,28.3,15.0,30.11,SE,129,0.0,1.0,57,0.00,,---,0.01,VWS V14.01,2013-03-04 22:55:00,
2013-03-04 17:59:00,30.8,15.3,30.10,SSE,155,0.0,2.0,52,0.00,,---,0.01,VWS V14.01,2013-03-04 22:59:00,
2013-03-04 18:00:00,28.3,15.4,30.11,East,95,0.0,1.0,58,0.00,,---,0.01,VWS V14.01,2013-03-04 23:00:00,
2013-03-04 18:04:00,30.5,15.4,30.10,ESE,116,0.0,3.0,53,0.00,,---,0.01,VWS V14.01,2013-03-04 23:04:00,
2013-03-04 18:05:00,28.0,15.5,30.10,East,94,0.0,0.0,59,0.00,,---,0.01,VWS V14.01,2013-03-04 23:05:00,
2013-03-04 18:09:00,30.2,14.7,30.10,ESE,104,0.0,1.0,52,0.00,,---,0.01,VWS V14.01,2013-03-04 23:09:00,
2013-03-04 18:10:00,27.6,15.2,30.11,East,96,0.0,0.0,59,0.00,,---,0.01,VWS V14.01,2013-03-04 23:10:00,
2013-03-04 18:14:00,30.0,14.5,30.10,East,100,0.0,1.0,52,0.00,,---,0.01,VWS V14.01,2013-03-04 23:14:00,
2013-03-04 18:15:00,27.1,15.1,30.11,East,96,0.0,0.0,60,0.00,,---,0.01,VWS V14.01,2013-03-04 23:15:00,
2013-03-04 18:19:00,29.9,14.9,30.10,ESE,123,1.0,1.0,53,0.00,,---,0.01,VWS V14.01,2013-03-04 23:19:00,
2013-03-04 18:20:00,26.8,15.5,30.11,East,96,0.0,0.0,62,0.00,,---,0.01,VWS V14.01,2013-03-04 23:20:00,
2013-03-04 18:24:00,29.7,14.7,30.10,East,90,0.0,3.0,53,0.00,,---,0.01,VWS V14.01,2013-03-04 23:24:00,
2013-03-04 18:25:00,26.4,15.2,30.11,East,96,0.0,0.0,62,0.00,,---,0.01,VWS V14.01,2013-03-04 23:25:00,
2013-03-04 18:29:00,29.4,14.8,30.10,ESE,109,2.0,3.0,54,0.00,,---,0.01,VWS V14.01,2013-03-04 23:29:00,
2013-03-04 18:30:00,25.7,14.9,30.11,East,96,0.0,0.0,63,0.00,,---,0.01,VWS V14.01,2013-03-04 23:30:00,
2013-03-04 18:34:00,29.3,14.7,30.11,SE,127,0.0,1.0,54,0.00,,---,0.01,VWS V14.01,2013-03-04 23:34:00,
2013-03-04 18:35:00,25.2,15.1,30.11,East,96,0.0,0.0,65,0.00,,---,0.01,VWS V14.01,2013-03-04 23:35:00,
2013-03-04 18:39:00,29.0,14.9,30.10,East,101,1.0,3.0,55,0.00,,---,0.01,VWS V14.01,2013-03-04 23:39:00,
2013-03-04 18:40:00,24.6,14.9,30.11,East,96,0.0,0.0,66,0.00,,---,0.01,VWS V14.01,2013-03-04 23:40:00,
2013-03-04 18:44:00,28.8,14.7,30.11,ESE,108,0.0,1.0,55,0.00,,---,0.01,VWS V14.01,2013-03-04 23:44:00,
2013-03-04 18:45:00,24.1,14.7,30.11,East,96,0.0,0.0,67,0.00,,---,0.01,VWS V14.01,2013-03-04 23:45:00,
2013-03-04 18:49:00,28.6,14.9,30.11,ESE,112,0.0,1.0,56,0.00,,---,0.01,VWS V14.01,2013-03-04 23:49:00,
2013-03-04 18:50:00,23.5,14.8,30.11,East,96,0.0,0.0,69,0.00,,---,0.01,VWS V14.01,2013-03-04 23:50:00,
2013-03-04 18:54:00,28.5,14.8,30.11,East,101,0.0,0.0,56,0.00,,---,0.01,VWS V14.01,2013-03-04 23:54:00,
2013-03-04 18:55:00,23.4,15.1,30.11,East,96,0.0,0.0,70,0.00,,---,0.01,VWS V14.01,2013-03-04 23:55:00,
2013-03-04 18:59:00,28.4,15.1,30.11,East,93,0.0,1.0,57,0.00,,---,0.01,VWS V14.01,2013-03-04 23:59:00,
2013-03-04 19:00:00,23.6,15.3,30.11,East,96,0.0,0.0,70,0.00,,---,0.01,VWS V14.01,2013-03-05 00:00:00,
2013-03-04 19:04:00,28.3,15.0,30.11,East,93,0.0,1.0,57,0.00,,---,0.01,VWS V14.01,2013-03-05 00:04:00,
2013-03-04 19:05:00,23.7,15.4,30.11,East,96,0.0,0.0,70,0.00,,---,0.01,VWS V14.01,2013-03-05 00:05:00,
2013-03-04 19:09:00,28.1,15.6,30.11,East,93,0.0,0.0,59,0.00,,---,0.01,VWS V14.01,2013-03-05 00:09:00,
2013-03-04 19:10:00,23.5,15.2,30.11,East,96,0.0,0.0,70,0.00,,---,0.01,VWS V14.01,2013-03-05 00:10:00,
2013-03-04 19:14:00,27.7,15.3,30.11,East,96,0.0,0.0,59,0.00,,---,0.01,VWS V14.01,2013-03-05 00:14:00,
2013-03-04 19:15:00,23.3,15.3,30.12,East,96,0.0,0.0,71,0.00,,---,0.01,VWS V14.01,2013-03-05 00:15:00,
2013-03-04 19:19:00,27.3,15.3,30.11,East,96,0.0,0.0,60,0.00,,---,0.01,VWS V14.01,2013-03-05 00:19:00,
2013-03-04 19:20:00,23.4,15.4,30.11,East,96,0.0,0.0,71,0.00,,---,0.01,VWS V14.01,2013-03-05 00:20:00,
2013-03-04 19:24:00,26.9,15.6,30.11,East,96,0.0,0.0,62,0.00,,---,0.01,VWS V14.01,2013-03-05 00:24:00,
2013-03-04 19:25:00,23.4,15.4,30.11,East,96,0.0,0.0,71,0.00,,---,0.01,VWS V14.01,2013-03-05 00:25:00,
2013-03-04 19:29:00,26.6,15.4,30.11,East,96,0.0,0.0,62,0.00,,---,0.01,VWS V14.01,2013-03-05 00:29:00,
2013-03-04 19:30:00,23.4,15.7,30.11,East,96,0.0,0.0,72,0.00,,---,0.01,VWS V14.01,2013-03-05 00:30:00,
2013-03-04 19:34:00,26.0,14.8,30.11,East,96,0.0,0.0,62,0.00,,---,0.01,VWS V14.01,2013-03-05 00:34:00,
2013-03-04 19:35:00,23.4,15.7,30.11,East,96,0.0,0.0,72,0.00,,---,0.01,VWS V14.01,2013-03-05 00:35:00,
2013-03-04 19:39:00,25.3,15.2,30.11,East,96,0.0,0.0,65,0.00,,---,0.01,VWS V14.01,2013-03-05 00:39:00,
2013-03-04 19:40:00,23.4,15.7,30.11,East,96,0.0,0.0,72,0.00,,---,0.01,VWS V14.01,2013-03-05 00:40:00,
2013-03-04 19:44:00,24.9,15.2,30.11,East,96,0.0,0.0,66,0.00,,---,0.01,VWS V14.01,2013-03-05 00:44:00,
2013-03-04 19:45:00,23.2,15.8,30.11,East,96,0.0,0.0,73,0.00,,---,0.01,VWS V14.01,2013-03-05 00:45:00,
2013-03-04 19:49:00,24.3,14.9,30.11,East,96,0.0,0.0,67,0.00,,---,0.01,VWS V14.01,2013-03-05 00:49:00,
2013-03-04 19:50:00,22.9,15.9,30.11,East,96,0.0,0.0,74,0.00,,---,0.01,VWS V14.01,2013-03-05 00:50:00,
2013-03-04 19:54:00,23.7,14.7,30.11,East,96,0.0,0.0,68,0.00,,---,0.01,VWS V14.01,2013-03-05 00:54:00,
2013-03-04 19:55:00,22.8,16.1,30.12,East,96,0.0,0.0,75,0.00,,---,0.01,VWS V14.01,2013-03-05 00:55:00,
2013-03-04 19:59:00,23.4,15.1,30.11,East,96,0.0,0.0,70,0.00,,---,0.01,VWS V14.01,2013-03-05 00:59:00,
2013-03-04 20:00:00,22.5,15.8,30.12,East,96,0.0,0.0,75,0.00,,---,0.01,VWS V14.01,2013-03-05 01:00:00,
2013-03-04 20:04:00,23.5,15.2,30.11,East,96,0.0,0.0,70,0.00,,---,0.01,VWS V14.01,2013-03-05 01:04:00,
2013-03-04 20:05:00,22.5,16.1,30.12,ENE,59,0.0,0.0,76,0.00,,---,0.01,VWS V14.01,2013-03-05 01:05:00,
2013-03-04 20:09:00,23.7,15.4,30.11,East,96,0.0,0.0,70,0.00,,---,0.01,VWS V14.01,2013-03-05 01:09:00,
2013-03-04 20:10:00,22.7,16.0,30.12,ENE,60,0.0,0.0,75,0.00,,---,0.01,VWS V14.01,2013-03-05 01:10:00,
2013-03-04 20:14:00,23.6,15.3,30.11,East,96,0.0,0.0,70,0.00,,---,0.01,VWS V14.01,2013-03-05 01:14:00,
2013-03-04 20:15:00,22.7,16.3,30.12,ENE,61,0.0,0.0,76,0.00,,---,0.01,VWS V14.01,2013-03-05 01:15:00,
2013-03-04 20:19:00,23.4,15.4,30.11,East,96,0.0,0.0,71,0.00,,---,0.01,VWS V14.01,2013-03-05 01:19:00,
2013-03-04 20:20:00,22.5,16.1,30.12,ENE,59,0.0,0.0,76,0.00,,---,0.01,VWS V14.01,2013-03-05 01:20:00,
2013-03-04 20:24:00,23.4,15.4,30.11,East,96,0.0,0.0,71,0.00,,---,0.01,VWS V14.01,2013-03-05 01:24:00,
2013-03-04 20:25:00,22.3,16.2,30.12,ENE,61,0.0,0.0,77,0.00,,---,0.01,VWS V14.01,2013-03-05 01:25:00,
2013-03-04 20:29:00,23.4,15.4,30.11,East,96,0.0,0.0,71,0.00,,---,0.01,VWS V14.01,2013-03-05 01:29:00,
2013-03-04 20:30:00,22.3,16.5,30.12,ENE,57,0.0,0.0,78,0.00,,---,0.01,VWS V14.01,2013-03-05 01:30:00,
2013-03-04 20:34:00,23.4,15.7,30.11,East,96,0.0,0.0,72,0.00,,---,0.01,VWS V14.01,2013-03-05 01:34:00,
2013-03-04 20:35:00,22.1,16.3,30.12,ENE,57,0.0,0.0,78,0.00,,---,0.01,VWS V14.01,2013-03-05 01:35:00,
2013-03-04 20:39:00,23.4,15.7,30.11,East,96,0.0,0.0,72,0.00,,---,0.01,VWS V14.01,2013-03-05 01:39:00,
2013-03-04 20:40:00,22.1,16.6,30.12,ENE,57,0.0,0.0,79,0.00,,---,0.01,VWS V14.01,2013-03-05 01:40:00,
2013-03-04 20:44:00,23.4,15.7,30.11,East,96,0.0,0.0,72,0.00,,---,0.01,VWS V14.01,2013-03-05 01:44:00,
2013-03-04 20:45:00,22.3,16.8,30.12,ENE,57,0.0,0.0,79,0.00,,---,0.01,VWS V14.01,2013-03-05 01:45:00,
2013-03-04 20:49:00,23.3,15.9,30.11,East,96,0.0,0.0,73,0.00,,---,0.01,VWS V14.01,2013-03-05 01:49:00,
2013-03-04 20:50:00,22.2,16.7,30.12,ENE,57,0.0,0.0,79,0.00,,---,0.01,VWS V14.01,2013-03-05 01:50:00,
2013-03-04 20:54:00,23.0,15.6,30.11,East,96,0.0,0.0,73,0.00,,---,0.01,VWS V14.01,2013-03-05 01:54:00,
2013-03-04 20:55:00,21.7,16.2,30.12,ENE,57,0.0,0.0,79,0.00,,---,0.01,VWS V14.01,2013-03-05 01:55:00,
2013-03-04 20:59:00,22.8,16.1,30.11,East,96,0.0,0.0,75,0.00,,---,0.01,VWS V14.01,2013-03-05 01:59:00,
2013-03-04 21:00:00,21.4,16.2,30.12,ENE,57,0.0,0.0,80,0.00,,---,0.01,VWS V14.01,2013-03-05 02:00:00,
2013-03-04 21:04:00,22.7,16.0,30.12,East,96,0.0,0.0,75,0.00,,---,0.01,VWS V14.01,2013-03-05 02:04:00,
2013-03-04 21:05:00,21.1,16.2,30.12,ENE,57,0.0,0.0,81,0.00,,---,0.01,VWS V14.01,2013-03-05 02:05:00,
2013-03-04 21:09:00,22.4,15.7,30.12,East,93,0.0,0.0,75,0.00,,---,0.01,VWS V14.01,2013-03-05 02:09:00,
2013-03-04 21:10:00,20.8,15.9,30.12,ENE,57,0.0,0.0,81,0.00,,---,0.01,VWS V14.01,2013-03-05 02:10:00,
2013-03-04 21:14:00,22.7,16.0,30.12,ENE,60,0.0,0.0,75,0.00,,---,0.01,VWS V14.01,2013-03-05 02:14:00,
2013-03-04 21:15:00,20.6,16.0,30.13,ENE,57,0.0,0.0,82,0.00,,---,0.01,VWS V14.01,2013-03-05 02:15:00,
2013-03-04 21:19:00,22.7,16.0,30.12,ENE,60,0.0,0.0,75,0.00,,---,0.01,VWS V14.01,2013-03-05 02:19:00,
2013-03-04 21:20:00,20.4,15.8,30.13,ENE,58,0.0,0.0,82,0.00,,---,0.01,VWS V14.01,2013-03-05 02:20:00,
2013-03-04 21:25:00,22.5,16.1,30.12,ENE,61,0.0,0.0,76,0.00,,---,0.01,VWS V14.01,2013-03-05 02:25:00,
2013-03-04 21:30:00,22.4,16.0,30.12,ENE,61,0.0,0.0,76,0.00,,---,0.01,VWS V14.01,2013-03-05 02:30:00,
2013-03-04 21:35:00,22.3,16.2,30.12,ENE,58,0.0,0.0,77,0.00,,---,0.01,VWS V14.01,2013-03-05 02:35:00,
2013-03-04 21:40:00,22.2,16.4,30.12,ENE,58,0.0,0.0,78,0.00,,---,0.01,VWS V14.01,2013-03-05 02:40:00,
2013-03-04 21:45:00,22.1,16.6,30.12,ENE,57,0.0,0.0,79,0.00,,---,0.01,VWS V14.01,2013-03-05 02:45:00,
2013-03-04 21:50:00,22.2,16.7,30.12,ENE,58,0.0,0.0,79,0.00,,---,0.01,VWS V14.01,2013-03-05 02:50:00,
2013-03-04 21:55:00,22.3,16.8,30.12,ENE,57,0.0,0.0,79,0.00,,---,0.01,VWS V14.01,2013-03-05 02:55:00,
2013-03-04 22:00:00,21.9,16.4,30.12,ENE,57,0.0,0.0,79,0.00,,---,0.01,VWS V14.01,2013-03-05 03:00:00,
2013-03-04 22:05:00,21.5,16.0,30.12,ENE,57,0.0,0.0,80,0.00,,,0.01,weatherlink.com 1.10,2013-03-05 03:05:00,
2013-03-04 22:10:00,21.1,16.2,30.12,ENE,57,0.0,0.0,81,0.00,,---,0.01,VWS V14.01,2013-03-05 03:10:00,
2013-03-04 22:14:00,20.9,16.0,30.12,ENE,58,0.0,0.0,81,0.00,,---,0.01,VWS V14.01,2013-03-05 03:14:00,
2013-03-04 22:15:00,19.0,15.2,30.14,ENE,58,0.0,0.0,85,0.00,,---,0.01,VWS V14.01,2013-03-05 03:15:00,
2013-03-04 22:19:00,20.6,16.0,30.13,ENE,58,0.0,0.0,82,0.00,,---,0.01,VWS V14.01,2013-03-05 03:19:00,
2013-03-04 22:20:00,18.9,15.4,30.14,ENE,58,0.0,0.0,86,0.00,,---,0.01,VWS V14.01,2013-03-05 03:20:00,
2013-03-04 22:24:00,20.4,15.8,30.13,ENE,57,0.0,0.0,82,0.00,,---,0.01,VWS V14.01,2013-03-05 03:24:00,
2013-03-04 22:25:00,18.9,15.4,30.14,ENE,58,0.0,0.0,86,0.00,,---,0.01,VWS V14.01,2013-03-05 03:25:00,
2013-03-04 22:29:00,20.2,15.6,30.13,ENE,58,0.0,0.0,82,0.00,,---,0.01,VWS V14.01,2013-03-05 03:29:00,
2013-03-04 22:30:00,18.8,15.3,30.14,ENE,58,0.0,0.0,86,0.00,,---,0.01,VWS V14.01,2013-03-05 03:30:00,
2013-03-04 22:34:00,20.1,15.5,30.13,ENE,58,0.0,0.0,82,0.00,,---,0.01,VWS V14.01,2013-03-05 03:34:00,
2013-03-04 22:35:00,18.9,15.7,30.14,ENE,58,0.0,0.0,87,0.00,,---,0.01,VWS V14.01,2013-03-05 03:35:00,
2013-03-04 22:39:00,20.0,15.7,30.13,ENE,58,0.0,0.0,83,0.00,,---,0.01,VWS V14.01,2013-03-05 03:39:00,
2013-03-04 22:40:00,19.2,15.7,30.14,ENE,58,0.0,0.0,86,0.00,,---,0.01,VWS V14.01,2013-03-05 03:40:00,
2013-03-04 22:44:00,20.0,15.7,30.13,ENE,58,0.0,0.0,83,0.00,,---,0.01,VWS V14.01,2013-03-05 03:44:00,
2013-03-04 22:45:00,19.1,15.3,30.14,ENE,58,0.0,0.0,85,0.00,,---,0.01,VWS V14.01,2013-03-05 03:45:00,
2013-03-04 22:49:00,20.0,15.7,30.13,ENE,58,0.0,0.0,83,0.00,,---,0.01,VWS V14.01,2013-03-05 03:49:00,
2013-03-04 22:50:00,18.9,15.4,30.14,ENE,58,0.0,0.0,86,0.00,,---,0.01,VWS V14.01,2013-03-05 03:50:00,
2013-03-04 22:54:00,20.0,15.7,30.13,ENE,58,0.0,0.0,83,0.00,,---,0.01,VWS V14.01,2013-03-05 03:54:00,
2013-03-04 22:55:00,18.8,15.3,30.14,ENE,58,0.0,0.0,86,0.00,,---,0.01,VWS V14.01,2013-03-05 03:55:00,
2013-03-04 22:59:00,19.8,15.5,30.13,ENE,58,0.0,0.0,83,0.00,,---,0.01,VWS V14.01,2013-03-05 03:59:00,
2013-03-04 23:00:00,18.6,15.1,30.14,ENE,58,0.0,0.0,86,0.00,,---,0.01,VWS V14.01,2013-03-05 04:00:00,
2013-03-04 23:04:00,19.7,15.7,30.14,ENE,58,0.0,0.0,84,0.00,,---,0.01,VWS V14.01,2013-03-05 04:04:00,
2013-03-04 23:05:00,18.6,15.1,30.14,ENE,58,0.0,0.0,86,0.00,,---,0.00,VWS V14.01,2013-03-05 04:05:00,
2013-03-04 23:09:00,19.5,15.5,30.14,ENE,58,0.0,0.0,84,0.00,,---,0.01,VWS V14.01,2013-03-05 04:09:00,
2013-03-04 23:10:00,18.5,15.3,30.14,ENE,58,0.0,0.0,87,0.00,,---,0.00,VWS V14.01,2013-03-05 04:10:00,
2013-03-04 23:14:00,19.2,15.4,30.14,ENE,58,0.0,0.0,85,0.00,,---,0.01,VWS V14.01,2013-03-05 04:14:00,
2013-03-04 23:15:00,18.4,15.2,30.14,ENE,58,0.0,0.0,87,0.00,,---,0.00,VWS V14.01,2013-03-05 04:15:00,
2013-03-04 23:19:00,19.1,15.3,30.14,ENE,58,0.0,0.0,85,0.00,,---,0.01,VWS V14.01,2013-03-05 04:19:00,
2013-03-04 23:20:00,18.3,15.1,30.14,ENE,58,0.0,0.0,87,0.00,,---,0.00,VWS V14.01,2013-03-05 04:20:00,
2013-03-04 23:24:00,19.0,15.2,30.14,ENE,58,0.0,0.0,85,0.00,,---,0.01,VWS V14.01,2013-03-05 04:24:00,
2013-03-04 23:25:00,18.1,14.9,30.14,ENE,58,0.0,0.0,87,0.00,,---,0.00,VWS V14.01,2013-03-05 04:25:00,
2013-03-04 23:29:00,18.9,15.4,30.14,ENE,58,0.0,0.0,86,0.00,,---,0.01,VWS V14.01,2013-03-05 04:29:00,
2013-03-04 23:30:00,17.9,14.7,30.14,ENE,58,0.0,0.0,87,0.00,,---,0.00,VWS V14.01,2013-03-05 04:30:00,
2013-03-04 23:34:00,18.8,15.3,30.14,ENE,58,0.0,0.0,86,0.00,,---,0.01,VWS V14.01,2013-03-05 04:34:00,
2013-03-04 23:35:00,17.7,14.5,30.14,ENE,58,0.0,0.0,87,0.00,,---,0.00,VWS V14.01,2013-03-05 04:35:00,
2013-03-04 23:39:00,18.7,15.5,30.14,ENE,58,0.0,0.0,87,0.00,,---,0.01,VWS V14.01,2013-03-05 04:39:00,
2013-03-04 23:40:00,17.6,14.4,30.14,ENE,58,0.0,0.0,87,0.00,,---,0.00,VWS V14.01,2013-03-05 04:40:00,
2013-03-04 23:44:00,19.1,15.9,30.14,ENE,58,0.0,0.0,87,0.00,,---,0.01,VWS V14.01,2013-03-05 04:44:00,
2013-03-04 23:45:00,17.7,14.5,30.14,ENE,58,0.0,0.0,87,0.00,,---,0.00,VWS V14.01,2013-03-05 04:45:00,
2013-03-04 23:49:00,19.2,15.4,30.14,ENE,58,0.0,0.0,85,0.00,,---,0.01,VWS V14.01,2013-03-05 04:49:00,
2013-03-04 23:50:00,17.5,14.0,30.14,ENE,58,0.0,0.0,86,0.00,,---,0.00,VWS V14.01,2013-03-05 04:50:00,
2013-03-04 23:54:00,19.0,15.5,30.14,ENE,58,0.0,0.0,86,0.00,,---,0.01,VWS V14.01,2013-03-05 04:54:00,
2013-03-04 23:55:00,17.2,14.0,30.13,ENE,58,0.0,0.0,87,0.00,,---,0.00,VWS V14.01,2013-03-05 04:55:00,
2013-03-04 23:59:00,18.8,15.3,30.14,ENE,58,0.0,0.0,86,0.00,,---,0.01,VWS V14.01,2013-03-05 04:59:00,